White Earth, Minnesota
Current Conditions -  °F | °C
As of 6:35 PM on Thursday 18 Dec 2014 (Local Time) from K3N8 Reporting Station
Overcast Overcast  
Wind Chill: 10°   Ceiling: 6500
Heat Index: 19°   Visibility: 10mi
Dew Point: 14°   Wind: 7mph
Humidity: 81%   Direction: 150°SSE
Pressure: 30.16"   Gusts: NA
Location:  47.1°N, 95.84°W
Report Text: K3N8 190035Z AUTO 15006KT 10SM OVC065 M07/M10 A3016 RMK AO2 T10711099
Loading
Personal Weather Stations






























Interactive Weather Map New forecast layout! Learn more

10-Day Weather Forecast

Advertisements
Track Severe Weather on mobile